Neuburg — 5BQJ2 — position and weather

sailwx.info

Track history (hours):
 
Tides and Currents Weather Stations Pressure Air Temp Water Temp Dewpoint Dewpoint Depression Visibility Wind Speed Wind Dir Waves Ship Positions

Neuburg

Last reported at 2015-Mar-01 20:31 UTC. Time now 2015-Mar-02 12:52 UTC.
Position N 35°59' W 005°29'.

Length 142 m; draft 7.3 m.

Type: Cargo ship. MMSI: 212740000.

Date/timePositionNaut miles runAvg speedWind from/ knotsBaromVisibWave heightAir tempDewpointWater temp
2015-Mar-01 20:31N 35°59' W 005°29'1515.6
2015-Mar-01 19:33N 36°04' W 005°11'20916.0
2015-Mar-01 06:33N 37°13' W 001°05'1717.1
2015-Mar-01 05:34N 37°24' W 000°49'1817.9
2015-Mar-01 04:33N 37°36' W 000°33'1717.4
2015-Mar-01 03:33N 37°53' W 000°27'1817.5
2015-Mar-01 02:33N 38°10' W 000°23'11 0.9
2015-Feb-28 13:26N 38°20' W 000°30'11 2.2
2015-Feb-28 08:29N 38°10' W 000°23'1212.7
2015-Feb-28 07:33N 37°59' W 000°26'1111.2
2015-Feb-28 06:34N 37°48' W 000°28'1212.0
2015-Feb-28 05:33N 37°36' W 000°31'1111.1
2015-Feb-28 04:33N 37°27' W 000°40'1211.7
2015-Feb-28 03:33N 37°20' W 000°51'1514.4
2015-Feb-28 02:32N 37°09' W 001°04'20916.8
2015-Feb-27 14:07N 35°60' W 005°10'1120.2
2015-Feb-27 13:34N 35°58' W 005°23'  
2015-Feb-22 10:33N 35°59' W 005°27'1312.7
2015-Feb-22 09:33N 36°03' W 005°12'21016.1
2015-Feb-21 20:29N 37°11' W 001°05'1718.3
2015-Feb-21 19:33N 37°23' W 000°49'1818.3
2015-Feb-21 18:33N 37°35' W 000°32'1818.4
2015-Feb-21 17:33N 37°53' W 000°27'1917.9
2015-Feb-21 16:30N 38°12' W 000°24'13 0.8
2015-Feb-20 23:34N 37°58' W 000°26'1717.4
2015-Feb-20 22:33N 37°41' W 000°31'24815.5
2015-Feb-20 06:33N 35°60' W 005°13'  
Track history (hours):
 
Tides and Currents Weather Stations Pressure Air Temp Water Temp Dewpoint Dewpoint Depression Visibility Wind Speed Wind Dir Waves Ship Positions

Neuburg

Last reported at 2015-Mar-01 20:31 UTC. Time now 2015-Mar-02 12:52 UTC.
Position N 35°59' W 005°29'.

Length 142 m; draft 7.3 m.

Type: Cargo ship. MMSI: 212740000.

Date/timePositionNaut miles runAvg speedWind from/ knotsBaromVisibWave heightAir tempDewpointWater temp
2015-Mar-01 20:31N 35°59' W 005°29'1515.6
2015-Mar-01 19:33N 36°04' W 005°11'20916.0
2015-Mar-01 06:33N 37°13' W 001°05'1717.1
2015-Mar-01 05:34N 37°24' W 000°49'1817.9
2015-Mar-01 04:33N 37°36' W 000°33'1717.4
2015-Mar-01 03:33N 37°53' W 000°27'1817.5
2015-Mar-01 02:33N 38°10' W 000°23'11 0.9
2015-Feb-28 13:26N 38°20' W 000°30'11 2.2
2015-Feb-28 08:29N 38°10' W 000°23'1212.7
2015-Feb-28 07:33N 37°59' W 000°26'1111.2
2015-Feb-28 06:34N 37°48' W 000°28'1212.0
2015-Feb-28 05:33N 37°36' W 000°31'1111.1
2015-Feb-28 04:33N 37°27' W 000°40'1211.7
2015-Feb-28 03:33N 37°20' W 000°51'1514.4
2015-Feb-28 02:32N 37°09' W 001°04'20916.8
2015-Feb-27 14:07N 35°60' W 005°10'1120.2
2015-Feb-27 13:34N 35°58' W 005°23'  
2015-Feb-22 10:33N 35°59' W 005°27'1312.7
2015-Feb-22 09:33N 36°03' W 005°12'21016.1
2015-Feb-21 20:29N 37°11' W 001°05'1718.3
2015-Feb-21 19:33N 37°23' W 000°49'1818.3
2015-Feb-21 18:33N 37°35' W 000°32'1818.4
2015-Feb-21 17:33N 37°53' W 000°27'1917.9
2015-Feb-21 16:30N 38°12' W 000°24'13 0.8
2015-Feb-20 23:34N 37°58' W 000°26'1717.4
2015-Feb-20 22:33N 37°41' W 000°31'24815.5
2015-Feb-20 06:33N 35°60' W 005°13'  

Dump ship's entire track history